createdAt,value
2022-09-24T00:03:42.758Z,3.40
2022-09-24T00:07:26.436Z,3.13
2022-09-24T00:11:10.872Z,4.07
2022-09-24T00:14:53.579Z,3.50
2022-09-24T00:18:36.377Z,3.30
2022-09-24T00:22:18.978Z,3.90
2022-09-24T00:26:20.440Z,3.38
2022-09-24T00:30:02.944Z,2.92
2022-09-24T00:33:45.493Z,3.47
2022-09-24T00:37:28.716Z,3.37
2022-09-24T00:41:12.564Z,3.45
2022-09-24T00:44:58.118Z,3.30
2022-09-24T00:48:41.271Z,3.53
2022-09-24T00:52:24.364Z,3.65
2022-09-24T00:56:11.866Z,2.97
2022-09-24T00:59:57.066Z,3.35
2022-09-24T01:03:42.293Z,3.67
2022-09-24T01:07:25.429Z,3.40
2022-09-24T01:11:20.695Z,2.85
2022-09-24T01:15:16.374Z,2.95
2022-09-24T01:19:10.940Z,3.33
2022-09-24T01:23:10.783Z,3.30
2022-09-24T01:27:04.579Z,3.20
2022-09-24T01:30:51.881Z,2.70
2022-09-24T01:34:41.227Z,2.97
2022-09-24T01:38:29.387Z,3.65
2022-09-24T01:42:13.185Z,3.03
2022-09-24T01:46:02.934Z,3.00
2022-09-24T01:49:45.354Z,3.65
2022-09-24T01:53:30.983Z,2.90
2022-09-24T01:57:16.581Z,3.30
2022-09-24T02:01:06.306Z,3.55
2022-09-24T02:04:57.502Z,3.92
2022-09-24T02:08:42.590Z,3.50
2022-09-24T02:12:29.690Z,4.15
2022-09-24T02:16:16.296Z,3.90
2022-09-24T02:20:02.113Z,4.72
2022-09-24T02:23:48.781Z,4.72
2022-09-24T02:27:31.739Z,5.88
2022-09-24T02:31:19.333Z,4.93
2022-09-24T02:35:05.928Z,4.82
2022-09-24T02:38:48.258Z,5.28
2022-09-24T02:42:31.404Z,5.53
2022-09-24T02:46:16.875Z,6.88
2022-09-24T02:49:59.534Z,6.47
2022-09-24T02:53:42.326Z,5.88
2022-09-24T02:57:25.088Z,5.70
2022-09-24T03:01:07.844Z,5.57
2022-09-24T03:04:51.953Z,6.13
2022-09-24T03:08:35.750Z,5.20
2022-09-24T03:12:18.412Z,5.07
2022-09-24T03:16:01.049Z,5.00
2022-09-24T03:19:43.617Z,4.93
2022-09-24T03:23:27.808Z,5.03
2022-09-24T03:27:10.087Z,4.55
2022-09-24T03:31:01.685Z,4.47
2022-09-24T03:34:44.239Z,4.45
2022-09-24T03:38:29.187Z,4.00
2022-09-24T03:42:11.853Z,4.53
2022-09-24T03:45:55.238Z,4.67
2022-09-24T03:49:39.559Z,4.53
2022-09-24T03:53:22.228Z,4.72
2022-09-24T03:57:05.850Z,4.50
2022-09-24T04:00:48.412Z,5.20
2022-09-24T04:04:31.079Z,5.28
2022-09-24T04:08:13.902Z,5.25
2022-09-24T04:11:56.599Z,5.43
2022-09-24T04:15:40.670Z,4.82
2022-09-24T04:19:23.137Z,5.43
2022-09-24T04:23:06.214Z,4.93
2022-09-24T04:26:48.508Z,4.35
2022-09-24T04:30:32.453Z,4.50
2022-09-24T04:34:17.381Z,4.40
2022-09-24T04:38:00.528Z,4.40
2022-09-24T04:41:43.117Z,5.05
2022-09-24T04:45:26.746Z,4.27
2022-09-24T04:49:10.719Z,4.63
2022-09-24T04:52:54.988Z,4.18
2022-09-24T04:56:37.511Z,3.60
2022-09-24T05:00:22.067Z,4.10
2022-09-24T05:04:04.395Z,3.67
2022-09-24T05:07:47.101Z,4.88
2022-09-24T05:11:31.327Z,4.40
2022-09-24T05:15:13.889Z,4.10
2022-09-24T05:18:56.611Z,4.15
2022-09-24T05:22:42.462Z,4.72
2022-09-24T05:26:42.341Z,3.65
2022-09-24T05:30:26.948Z,3.30
2022-09-24T05:34:09.639Z,3.22
2022-09-24T05:37:53.749Z,3.25
2022-09-24T05:41:36.711Z,3.28
2022-09-24T05:45:19.696Z,3.47
2022-09-24T05:49:03.698Z,3.83
2022-09-24T05:52:45.994Z,3.80
2022-09-24T05:56:28.802Z,3.50
2022-09-24T06:00:12.665Z,3.67
2022-09-24T06:03:56.357Z,3.83
2022-09-24T06:07:40.415Z,4.05
2022-09-24T06:11:23.316Z,4.00
2022-09-24T06:15:08.221Z,3.80
2022-09-24T06:18:50.906Z,3.65
2022-09-24T06:22:33.572Z,3.42
2022-09-24T06:26:18.840Z,3.60
2022-09-24T06:30:01.397Z,3.58
2022-09-24T06:33:44.098Z,4.10
2022-09-24T06:37:26.765Z,3.75
2022-09-24T06:41:10.049Z,3.23
2022-09-24T06:44:53.897Z,3.40
2022-09-24T06:48:36.992Z,3.03
2022-09-24T06:52:20.546Z,3.95
2022-09-24T06:56:03.503Z,3.67
2022-09-24T06:59:46.019Z,3.15
2022-09-24T07:03:31.976Z,3.17
2022-09-24T07:07:32.873Z,3.30
2022-09-24T07:11:15.817Z,3.60
2022-09-24T07:15:00.130Z,3.55
2022-09-24T07:18:43.915Z,3.72
2022-09-24T07:22:26.636Z,4.07
2022-09-24T07:26:09.215Z,3.40
2022-09-24T07:29:51.781Z,3.03
2022-09-24T07:33:34.447Z,3.40
2022-09-24T07:37:18.277Z,3.47
2022-09-24T07:41:01.091Z,3.55
2022-09-24T07:44:43.658Z,3.63
2022-09-24T07:48:26.512Z,3.53
2022-09-24T07:52:10.113Z,4.07
2022-09-24T07:59:36.224Z,3.97
2022-09-24T08:03:18.980Z,4.35
2022-09-24T08:07:01.957Z,4.30
2022-09-24T08:10:45.044Z,4.45
2022-09-24T08:18:11.578Z,4.95
2022-09-24T08:21:54.025Z,5.15
2022-09-24T08:25:36.722Z,4.78
2022-09-24T08:29:19.405Z,5.95
2022-09-24T08:33:05.422Z,6.00
2022-09-24T08:36:48.170Z,5.30
2022-09-24T08:40:34.461Z,6.70
2022-09-24T08:44:36.630Z,5.15
2022-09-24T08:48:24.282Z,5.30
2022-09-24T08:52:21.674Z,5.70
2022-09-24T08:56:05.905Z,5.68
2022-09-24T08:59:52.610Z,5.88
2022-09-24T09:03:46.081Z,5.32
2022-09-24T09:07:33.450Z,5.10
2022-09-24T09:11:19.047Z,6.70
2022-09-24T09:15:06.960Z,8.88
2022-09-24T09:18:54.354Z,5.32
2022-09-24T09:22:42.143Z,5.85
2022-09-24T09:26:27.325Z,5.55
2022-09-24T09:30:16.877Z,5.63
2022-09-24T09:34:22.504Z,6.80
2022-09-24T09:38:19.552Z,6.38
2022-09-24T09:42:14.535Z,5.47
2022-09-24T09:46:04.342Z,6.32
2022-09-24T09:49:51.439Z,5.38
2022-09-24T09:53:34.253Z,4.65
2022-09-24T09:57:19.820Z,3.38
2022-09-24T10:01:08.425Z,4.55
2022-09-24T10:04:56.556Z,3.00
2022-09-24T10:08:40.202Z,2.63
2022-09-24T10:12:24.289Z,2.25
2022-09-24T10:16:10.775Z,4.28
2022-09-24T10:19:55.569Z,3.22
2022-09-24T10:23:42.006Z,2.72
2022-09-24T10:27:33.756Z,4.15
2022-09-24T10:31:19.259Z,3.38
2022-09-24T10:35:19.887Z,2.60
2022-09-24T10:39:04.923Z,5.30
2022-09-24T10:42:57.053Z,5.65
2022-09-24T10:46:56.057Z,4.75
2022-09-24T10:50:46.711Z,5.72
2022-09-24T10:54:43.302Z,4.65
2022-09-24T10:58:41.294Z,5.60
2022-09-24T11:03:04.898Z,5.43
2022-09-24T11:07:15.337Z,5.90
2022-09-24T11:11:12.357Z,4.90
2022-09-24T11:15:14.241Z,5.28
2022-09-24T11:19:01.123Z,6.15
2022-09-24T11:23:09.699Z,5.40
2022-09-24T11:27:04.364Z,5.13
2022-09-24T11:30:56.592Z,5.28
2022-09-24T11:34:59.648Z,4.57
2022-09-24T11:39:01.628Z,5.55
2022-09-24T11:42:55.069Z,4.28
2022-09-24T11:46:49.115Z,5.32
2022-09-24T11:50:43.711Z,4.22
2022-09-24T11:54:35.602Z,4.20
2022-09-24T11:58:21.690Z,5.20
2022-09-24T12:02:14.170Z,4.90
2022-09-24T12:06:02.355Z,4.67
2022-09-24T12:09:52.790Z,5.88
2022-09-24T12:13:41.761Z,4.82
2022-09-24T12:17:29.784Z,5.50
2022-09-24T12:21:18.404Z,7.05
2022-09-24T12:25:03.171Z,4.22
2022-09-24T12:29:13.294Z,4.63
2022-09-24T12:33:01.571Z,4.75
2022-09-24T12:36:57.471Z,5.68
2022-09-24T12:41:19.818Z,5.03
2022-09-24T12:45:06.001Z,5.63
2022-09-24T12:48:49.684Z,4.43
2022-09-24T12:52:36.367Z,4.72
2022-09-24T12:56:27.533Z,4.78
2022-09-24T13:00:36.500Z,4.53
2022-09-24T13:04:30.071Z,4.80
2022-09-24T13:12:22.346Z,4.82
2022-09-24T13:16:08.018Z,3.97
2022-09-24T13:19:57.216Z,3.88
2022-09-24T13:23:49.130Z,5.47
2022-09-24T13:27:38.452Z,8.48
2022-09-24T13:31:34.176Z,4.55
2022-09-24T13:35:23.614Z,9.15
2022-09-24T13:39:14.033Z,4.60
2022-09-24T13:43:05.191Z,4.32
2022-09-24T13:46:51.202Z,5.75
2022-09-24T13:50:38.196Z,5.72
2022-09-24T13:54:28.814Z,5.05
2022-09-24T13:58:28.028Z,5.38
2022-09-24T14:02:26.190Z,4.70
2022-09-24T14:06:14.475Z,5.45
2022-09-24T14:10:05.895Z,3.50
2022-09-24T14:13:49.878Z,6.82
2022-09-24T14:17:32.542Z,3.53
2022-09-24T14:21:23.113Z,4.40
2022-09-24T14:25:09.762Z,4.75
2022-09-24T14:28:54.577Z,4.22
2022-09-24T14:32:39.453Z,4.25
2022-09-24T14:36:28.100Z,4.75
2022-09-24T14:40:15.743Z,9.30
2022-09-24T14:44:03.911Z,4.03
2022-09-24T14:47:46.528Z,4.18
2022-09-24T14:51:30.753Z,3.45
2022-09-24T14:55:16.465Z,4.05
2022-09-24T14:59:01.476Z,3.97
2022-09-24T15:02:44.185Z,3.90
2022-09-24T15:06:28.912Z,4.30
2022-09-24T15:10:22.027Z,3.28
2022-09-24T15:17:57.343Z,4.57
2022-09-24T15:21:40.381Z,3.22
2022-09-24T15:25:22.942Z,3.40
2022-09-24T15:29:08.129Z,3.38
2022-09-24T15:32:51.261Z,3.45
2022-09-24T15:36:33.757Z,4.25
2022-09-24T15:40:22.906Z,4.65
2022-09-24T15:44:19.803Z,4.07
2022-09-24T15:48:02.530Z,3.97
2022-09-24T15:55:28.423Z,4.30
2022-09-24T16:03:00.514Z,4.18
2022-09-24T16:06:44.473Z,4.03
2022-09-24T16:10:27.122Z,3.70
2022-09-24T16:14:10.756Z,3.95
2022-09-24T16:17:57.526Z,4.45
2022-09-24T16:21:40.181Z,4.35
2022-09-24T16:25:23.741Z,4.07
2022-09-24T16:29:09.848Z,4.45
2022-09-24T16:32:54.138Z,4.85
2022-09-24T16:36:36.465Z,5.03
2022-09-24T16:40:19.387Z,4.80
2022-09-24T16:44:02.361Z,6.20
2022-09-24T16:47:46.921Z,6.30
2022-09-24T16:51:30.754Z,5.95
2022-09-24T16:55:13.409Z,6.68
2022-09-24T16:58:57.325Z,7.22
2022-09-24T17:02:40.422Z,8.15
2022-09-24T17:10:18.009Z,8.70
2022-09-24T17:14:00.936Z,8.32
2022-09-24T17:17:49.356Z,8.35
2022-09-24T17:21:32.523Z,7.70
2022-09-24T17:25:16.859Z,9.30
2022-09-24T17:28:59.448Z,9.05
2022-09-24T17:32:41.899Z,9.50
2022-09-24T17:36:25.405Z,8.27
2022-09-24T17:40:09.162Z,7.18
2022-09-24T17:43:53.305Z,6.40
2022-09-24T17:47:49.896Z,6.05
2022-09-24T17:51:34.049Z,6.57
2022-09-24T17:55:16.616Z,4.95
2022-09-24T17:59:00.970Z,23.73
2022-09-24T18:02:43.701Z,13.43
2022-09-24T18:06:32.533Z,6.78
2022-09-24T18:10:17.248Z,6.72
2022-09-24T18:14:05.147Z,10.35
2022-09-24T18:17:47.947Z,14.02
2022-09-24T18:21:31.044Z,14.98
2022-09-24T18:25:14.578Z,15.52
2022-09-24T18:28:59.052Z,22.02
2022-09-24T18:32:46.301Z,21.15
2022-09-24T18:36:28.861Z,7.38
2022-09-24T18:40:12.481Z,4.97
2022-09-24T18:43:56.063Z,10.50
2022-09-24T18:47:39.228Z,16.00
2022-09-24T18:51:27.368Z,8.05
2022-09-24T18:55:10.756Z,7.57
2022-09-24T18:58:57.184Z,7.82
2022-09-24T19:02:41.581Z,6.97
2022-09-24T19:06:25.715Z,4.10
2022-09-24T19:10:10.463Z,4.57
2022-09-24T19:13:54.802Z,4.25
2022-09-24T19:17:37.372Z,4.72
2022-09-24T19:21:20.896Z,4.93
2022-09-24T19:25:05.166Z,4.20
2022-09-24T19:28:51.524Z,4.45
2022-09-24T19:32:35.937Z,9.60
2022-09-24T19:36:19.312Z,5.22
2022-09-24T19:40:02.227Z,4.75
2022-09-24T19:43:46.573Z,4.20
2022-09-24T19:47:29.822Z,4.45
2022-09-24T19:54:56.175Z,5.22
2022-09-24T19:58:38.938Z,4.22
2022-09-24T20:02:22.894Z,4.40
2022-09-24T20:06:08.874Z,4.70
2022-09-24T20:09:51.522Z,4.40
2022-09-24T20:13:34.841Z,4.28
2022-09-24T20:17:17.332Z,3.50
2022-09-24T20:21:05.079Z,3.70
2022-09-24T20:24:48.866Z,3.97
2022-09-24T20:28:34.365Z,4.05
2022-09-24T20:32:19.539Z,4.47
2022-09-24T20:36:13.206Z,4.50
2022-09-24T20:39:57.396Z,4.95
2022-09-24T20:43:40.416Z,4.47
2022-09-24T20:47:23.089Z,4.05
2022-09-24T20:51:10.251Z,4.67
2022-09-24T20:54:53.066Z,4.93
2022-09-24T20:58:36.113Z,11.03
2022-09-24T21:02:18.880Z,8.50
2022-09-24T21:06:03.879Z,9.07
2022-09-24T21:09:47.888Z,11.93
2022-09-24T21:13:31.212Z,5.97
2022-09-24T21:20:55.854Z,6.05
2022-09-24T21:24:39.546Z,6.00
2022-09-24T21:32:06.640Z,5.00
2022-09-24T21:35:49.450Z,4.97
2022-09-24T21:39:34.849Z,6.40
2022-09-24T21:43:17.692Z,6.80
2022-09-24T21:47:01.813Z,6.30
2022-09-24T21:50:44.486Z,5.68
2022-09-24T21:54:27.117Z,5.37
2022-09-24T21:58:09.890Z,4.87
2022-09-24T22:01:53.213Z,5.18
2022-09-24T22:05:41.158Z,5.15
2022-09-24T22:09:24.739Z,5.35
2022-09-24T22:13:07.644Z,5.40
2022-09-24T22:16:50.011Z,4.93
2022-09-24T22:20:32.743Z,4.55
2022-09-24T22:24:17.444Z,4.37
2022-09-24T22:27:59.926Z,4.75
2022-09-24T22:31:42.476Z,4.83
2022-09-24T22:35:43.453Z,6.73
2022-09-24T22:53:04.662Z,5.72
2022-09-24T22:56:47.533Z,5.45
2022-09-24T23:00:30.253Z,6.60
2022-09-24T23:04:14.881Z,6.13
2022-09-24T23:07:57.260Z,6.18
2022-09-24T23:11:41.386Z,7.30
2022-09-24T23:15:25.182Z,7.03
2022-09-24T23:19:12.574Z,7.13
2022-09-24T23:22:55.193Z,5.65
2022-09-24T23:26:37.758Z,6.20
2022-09-24T23:30:22.417Z,5.80
2022-09-24T23:34:06.939Z,5.85
2022-09-24T23:37:49.643Z,6.13
2022-09-24T23:41:32.286Z,5.33
2022-09-24T23:45:15.047Z,5.53
2022-09-24T23:48:58.923Z,5.17
2022-09-24T23:52:41.701Z,4.65
2022-09-24T23:56:24.314Z,4.17
